createdAt,value
2023-01-28T00:00:52.415Z,1.6
2023-01-28T00:02:32.577Z,1.5
2023-01-28T00:04:12.740Z,1.5
2023-01-28T00:05:52.895Z,1.5
2023-01-28T00:07:32.975Z,1.5
2023-01-28T00:09:13.094Z,1.5
2023-01-28T00:10:53.245Z,1.5
2023-01-28T00:12:33.434Z,1.8
2023-01-28T00:14:13.575Z,1.8
2023-01-28T00:15:53.726Z,1.8
2023-01-28T00:17:33.824Z,1.8
2023-01-28T00:19:13.995Z,1.8
2023-01-28T00:20:54.159Z,1.8
2023-01-28T00:22:34.334Z,1.3
2023-01-28T00:24:14.537Z,1.3
2023-01-28T00:25:54.623Z,1.3
2023-01-28T00:27:34.765Z,1.3
2023-01-28T00:29:14.940Z,1.3
2023-01-28T00:30:55.064Z,1.3
2023-01-28T00:32:35.225Z,1.3
2023-01-28T00:34:15.372Z,1.3
2023-01-28T00:35:55.546Z,1.3
2023-01-28T00:37:35.658Z,1.3
2023-01-28T00:39:15.829Z,1.3
2023-01-28T00:40:55.999Z,1.3
2023-01-28T00:42:36.191Z,1.2
2023-01-28T00:44:16.339Z,1.2
2023-01-28T00:45:56.561Z,1.2
2023-01-28T00:47:36.690Z,1.2
2023-01-28T00:49:16.853Z,1.2
2023-01-28T00:50:56.988Z,1.2
2023-01-28T00:52:37.142Z,1.5
2023-01-28T00:54:17.333Z,1.5
2023-01-28T00:55:57.554Z,1.5
2023-01-28T00:57:37.742Z,1.5
2023-01-28T00:59:17.912Z,1.5
2023-01-28T01:00:58.047Z,1.5
2023-01-28T01:02:40.314Z,1.6
2023-01-28T01:04:18.399Z,1.6
2023-01-28T01:05:58.538Z,1.6
2023-01-28T01:07:38.654Z,1.6
2023-01-28T01:09:18.800Z,1.6
2023-01-28T01:10:58.938Z,1.6
2023-01-28T01:12:39.089Z,1.2
2023-01-28T01:14:19.299Z,1.2
2023-01-28T01:15:59.480Z,1.2
2023-01-28T01:17:39.514Z,1.2
2023-01-28T01:19:19.670Z,1.2
2023-01-28T01:20:59.785Z,1.2
2023-01-28T01:22:39.925Z,1.4
2023-01-28T01:24:20.099Z,1.4
2023-01-28T01:26:00.169Z,1.4
2023-01-28T01:27:40.283Z,1.4
2023-01-28T01:29:20.480Z,1.4
2023-01-28T01:31:00.665Z,1.4
2023-01-28T01:32:40.799Z,1.6
2023-01-28T01:34:20.967Z,1.6
2023-01-28T01:36:01.158Z,1.6
2023-01-28T01:37:41.327Z,1.6
2023-01-28T01:39:21.575Z,1.6
2023-01-28T01:41:01.703Z,1.6
2023-01-28T01:42:41.866Z,2.1
2023-01-28T01:44:22.011Z,2.1
2023-01-28T01:46:02.274Z,2.1
2023-01-28T01:47:42.330Z,2.1
2023-01-28T01:49:22.569Z,2.1
2023-01-28T01:51:02.685Z,2.1
2023-01-28T01:52:42.804Z,1.6
2023-01-28T01:54:22.982Z,1.6
2023-01-28T01:56:03.124Z,1.6
2023-01-28T01:57:43.287Z,1.6
2023-01-28T01:59:23.425Z,1.6
2023-01-28T02:01:03.539Z,1.6
2023-01-28T02:02:43.688Z,1.9
2023-01-28T02:04:23.855Z,1.9
2023-01-28T02:06:03.974Z,1.9
2023-01-28T02:07:44.134Z,1.9
2023-01-28T02:09:24.319Z,1.9
2023-01-28T02:11:04.484Z,1.9
2023-01-28T02:12:44.684Z,1.6
2023-01-28T02:14:30.816Z,1.6
2023-01-28T02:16:05.038Z,1.6
2023-01-28T02:17:45.179Z,1.6
2023-01-28T02:19:25.321Z,1.6
2023-01-28T02:21:05.492Z,1.6
2023-01-28T02:22:45.659Z,1.7
2023-01-28T02:24:25.830Z,1.7
2023-01-28T02:26:05.942Z,1.7
2023-01-28T02:27:46.169Z,1.7
2023-01-28T02:29:26.277Z,1.7
2023-01-28T02:31:06.482Z,1.7
2023-01-28T02:32:46.574Z,1.8
2023-01-28T02:34:26.712Z,1.8
2023-01-28T02:36:06.859Z,1.8
2023-01-28T02:37:46.984Z,1.8
2023-01-28T02:39:27.201Z,1.8
2023-01-28T02:41:07.309Z,1.8
2023-01-28T02:42:47.487Z,1.6
2023-01-28T02:44:27.663Z,1.6
2023-01-28T02:46:07.867Z,1.6
2023-01-28T02:47:47.961Z,1.6
2023-01-28T02:49:28.118Z,1.6
2023-01-28T02:51:08.223Z,1.6
2023-01-28T02:52:48.341Z,1.3
2023-01-28T02:54:28.525Z,1.3
2023-01-28T02:56:08.697Z,1.3
2023-01-28T02:57:48.884Z,1.3
2023-01-28T02:59:29.115Z,1.3
2023-01-28T03:01:09.247Z,1.3
2023-01-28T03:02:49.413Z,1.6
2023-01-28T03:04:29.502Z,1.6
2023-01-28T03:06:09.668Z,1.6
2023-01-28T03:07:49.757Z,1.6
2023-01-28T03:09:29.899Z,1.6
2023-01-28T03:11:10.074Z,1.6
2023-01-28T03:12:50.266Z,1.5
2023-01-28T03:14:30.418Z,1.5
2023-01-28T03:16:10.656Z,1.5
2023-01-28T03:17:50.742Z,1.5
2023-01-28T03:19:30.957Z,1.5
2023-01-28T03:21:11.103Z,1.5
2023-01-28T03:22:51.249Z,1.2
2023-01-28T03:24:31.403Z,1.2
2023-01-28T03:26:11.544Z,1.2
2023-01-28T03:27:51.692Z,1.2
2023-01-28T03:29:31.836Z,1.2
2023-01-28T03:31:11.968Z,1.2
2023-01-28T03:32:52.136Z,1
2023-01-28T03:34:32.333Z,1
2023-01-28T03:36:12.463Z,1
2023-01-28T03:37:52.610Z,1
2023-01-28T03:39:32.732Z,1
2023-01-28T03:41:12.901Z,1
2023-01-28T03:42:53.057Z,1
2023-01-28T03:44:33.191Z,1.4
2023-01-28T03:46:13.466Z,1.4
2023-01-28T03:47:53.452Z,1.4
2023-01-28T03:49:33.681Z,1.4
2023-01-28T03:51:13.843Z,1.4
2023-01-28T03:52:53.954Z,1.2
2023-01-28T03:54:34.210Z,1.2
2023-01-28T03:56:14.339Z,1.2
2023-01-28T03:57:54.567Z,1.2
2023-01-28T03:59:34.746Z,1.2
2023-01-28T04:01:14.870Z,1.2
2023-01-28T04:02:55.095Z,1.2
2023-01-28T04:04:35.176Z,1.2
2023-01-28T04:06:15.276Z,1.2
2023-01-28T04:07:55.441Z,1.2
2023-01-28T04:09:35.599Z,1.2
2023-01-28T04:11:15.952Z,1.2
2023-01-28T04:12:55.905Z,1.2
2023-01-28T04:14:36.048Z,1
2023-01-28T04:16:16.277Z,1
2023-01-28T04:17:56.339Z,1
2023-01-28T04:19:36.515Z,1
2023-01-28T04:21:16.672Z,1
2023-01-28T04:22:56.825Z,1
2023-01-28T04:24:37.037Z,1.2
2023-01-28T04:26:17.092Z,1.2
2023-01-28T04:27:57.255Z,1.2
2023-01-28T04:29:37.449Z,1.2
2023-01-28T04:31:17.696Z,1.2
2023-01-28T04:32:57.792Z,1.2
2023-01-28T04:34:37.933Z,1
2023-01-28T04:36:18.054Z,1
2023-01-28T04:37:58.187Z,1
2023-01-28T04:39:38.301Z,1
2023-01-28T04:41:18.423Z,1
2023-01-28T04:42:58.620Z,1
2023-01-28T04:44:38.699Z,1.3
2023-01-28T04:46:18.926Z,1.3
2023-01-28T04:47:59.091Z,1.3
2023-01-28T04:49:39.206Z,1.3
2023-01-28T04:51:19.356Z,1.3
2023-01-28T04:52:59.522Z,1.3
2023-01-28T04:54:39.755Z,1.5
2023-01-28T04:56:19.883Z,1.5
2023-01-28T04:58:00.146Z,1.5
2023-01-28T04:59:40.317Z,1.5
2023-01-28T05:01:20.419Z,1.5
2023-01-28T05:03:00.600Z,1.5
2023-01-28T05:04:40.719Z,1.5
2023-01-28T05:06:20.854Z,1.5
2023-01-28T05:08:01.085Z,1.5
2023-01-28T05:09:41.231Z,1.5
2023-01-28T05:11:21.368Z,1.5
2023-01-28T05:13:01.579Z,1.5
2023-01-28T05:14:41.670Z,1.3
2023-01-28T05:16:21.799Z,1.3
2023-01-28T05:18:02.019Z,1.3
2023-01-28T05:19:42.146Z,1.3
2023-01-28T05:21:22.292Z,1.3
2023-01-28T05:23:02.422Z,1.3
2023-01-28T05:24:42.587Z,0.9
2023-01-28T05:26:22.732Z,0.9
2023-01-28T05:28:02.919Z,0.9
2023-01-28T05:29:43.039Z,0.9
2023-01-28T05:31:23.154Z,0.9
2023-01-28T05:33:03.294Z,0.9
2023-01-28T05:34:43.500Z,1
2023-01-28T05:36:23.601Z,1
2023-01-28T05:38:03.775Z,1
2023-01-28T05:39:43.929Z,1
2023-01-28T05:41:24.136Z,1
2023-01-28T05:43:04.267Z,1
2023-01-28T05:44:44.512Z,1.1
2023-01-28T05:46:24.667Z,1.1
2023-01-28T05:48:04.775Z,1.1
2023-01-28T05:49:44.949Z,1.1
2023-01-28T05:51:25.105Z,1.1
2023-01-28T05:53:05.255Z,1.1
2023-01-28T05:54:45.509Z,1.4
2023-01-28T05:56:25.684Z,1.4
2023-01-28T05:58:05.881Z,1.4
2023-01-28T05:59:46.094Z,1.4
2023-01-28T06:01:26.238Z,1.4
2023-01-28T06:03:06.414Z,1.4
2023-01-28T06:04:46.602Z,1.1
2023-01-28T06:06:26.738Z,1.1
2023-01-28T06:08:06.855Z,1.1
2023-01-28T06:09:47.069Z,1.1
2023-01-28T06:11:27.200Z,1.1
2023-01-28T06:13:07.391Z,1.1
2023-01-28T06:14:47.547Z,0.7
2023-01-28T06:16:27.727Z,0.7
2023-01-28T06:18:07.845Z,0.7
2023-01-28T06:19:47.991Z,0.7
2023-01-28T06:21:30.146Z,0.7
2023-01-28T06:23:08.273Z,0.7
2023-01-28T06:24:48.421Z,0.7
2023-01-28T06:26:28.539Z,0.7
2023-01-28T06:28:08.690Z,0.7
2023-01-28T06:29:48.861Z,0.7
2023-01-28T06:31:29.073Z,0.7
2023-01-28T06:33:09.216Z,0.7
2023-01-28T06:34:49.366Z,0.5
2023-01-28T06:36:29.502Z,0.5
2023-01-28T06:38:09.630Z,0.5
2023-01-28T06:39:49.737Z,0.5
2023-01-28T06:41:29.920Z,0.5
2023-01-28T06:43:10.094Z,0.5
2023-01-28T06:44:50.239Z,0.8
2023-01-28T06:46:30.448Z,0.8
2023-01-28T06:48:10.572Z,0.8
2023-01-28T06:49:50.811Z,0.8
2023-01-28T06:51:30.957Z,0.8
2023-01-28T06:53:11.090Z,0.8
2023-01-28T06:54:51.324Z,0.6
2023-01-28T06:56:43.623Z,0.6
2023-01-28T06:58:23.817Z,0.6
2023-01-28T07:00:03.951Z,0.6
2023-01-28T07:01:44.153Z,0.6
2023-01-28T07:03:24.237Z,0.6
2023-01-28T07:05:04.395Z,0.6
2023-01-28T07:06:44.517Z,0.6
2023-01-28T07:08:24.654Z,0.6
2023-01-28T07:10:04.882Z,0.6
2023-01-28T07:11:45.004Z,0.6
2023-01-28T07:13:25.122Z,0.6
2023-01-28T07:15:05.251Z,0.8
2023-01-28T07:16:45.404Z,0.8
2023-01-28T07:18:25.524Z,0.8
2023-01-28T07:20:05.724Z,0.8
2023-01-28T07:21:45.884Z,0.8
2023-01-28T07:25:06.196Z,0.7
2023-01-28T07:26:46.413Z,0.7
2023-01-28T07:28:26.574Z,0.7
2023-01-28T07:30:06.736Z,0.7
2023-01-28T07:31:47.028Z,0.7
2023-01-28T07:33:27.032Z,0.7
2023-01-28T07:35:07.319Z,0.7
2023-01-28T07:36:47.334Z,0.7
2023-01-28T07:38:27.489Z,0.7
2023-01-28T07:40:07.650Z,0.7
2023-01-28T07:41:47.810Z,0.7
2023-01-28T07:43:28.017Z,0.7
2023-01-28T07:45:08.160Z,1
2023-01-28T07:46:48.378Z,1
2023-01-28T07:48:28.469Z,1
2023-01-28T07:50:08.633Z,1
2023-01-28T07:51:48.779Z,1
2023-01-28T07:53:29.022Z,1
2023-01-28T07:55:09.240Z,0.9
2023-01-28T07:56:49.368Z,0.9
2023-01-28T07:58:29.511Z,0.9
2023-01-28T08:00:09.642Z,0.9
2023-01-28T08:01:49.779Z,0.9
2023-01-28T08:03:29.955Z,0.9
2023-01-28T08:05:10.307Z,0.9
2023-01-28T08:06:50.348Z,0.6
2023-01-28T08:08:30.491Z,0.6
2023-01-28T08:10:10.671Z,0.6
2023-01-28T08:11:50.799Z,0.6
2023-01-28T08:13:30.981Z,0.6
2023-01-28T08:15:11.155Z,0.6
2023-01-28T08:16:51.315Z,0.7
2023-01-28T08:18:32.621Z,0.7
2023-01-28T08:20:11.649Z,0.7
2023-01-28T08:21:51.816Z,0.7
2023-01-28T08:23:31.952Z,0.7
2023-01-28T08:25:12.104Z,0.7
2023-01-28T08:26:52.244Z,1
2023-01-28T08:28:32.378Z,1
2023-01-28T08:30:13.008Z,1
2023-01-28T08:31:52.775Z,1
2023-01-28T08:33:32.790Z,1
2023-01-28T08:35:12.931Z,1
2023-01-28T08:36:53.087Z,0.8
2023-01-28T08:38:33.313Z,0.8
2023-01-28T08:40:13.955Z,0.8
2023-01-28T08:41:53.535Z,0.8
2023-01-28T08:43:33.726Z,0.8
2023-01-28T08:45:13.943Z,0.8
2023-01-28T08:46:54.082Z,1.2
2023-01-28T08:48:34.220Z,1.2
2023-01-28T08:50:14.676Z,1.2
2023-01-28T08:51:54.487Z,1.2
2023-01-28T08:53:34.665Z,1.2
2023-01-28T08:55:14.934Z,1.2
2023-01-28T08:56:55.028Z,1.1
2023-01-28T08:58:35.238Z,1.1
2023-01-28T09:00:15.826Z,1.1
2023-01-28T09:01:55.601Z,1.1
2023-01-28T09:03:35.728Z,1.1
2023-01-28T09:05:15.821Z,1.1
2023-01-28T09:06:56.099Z,0.8
2023-01-28T09:08:36.119Z,0.8
2023-01-28T09:10:16.748Z,0.8
2023-01-28T09:11:56.412Z,0.8
2023-01-28T09:13:36.531Z,0.8
2023-01-28T09:15:16.661Z,0.8
2023-01-28T09:16:56.854Z,0.9
2023-01-28T09:18:37.068Z,0.9
2023-01-28T09:20:17.780Z,0.9
2023-01-28T09:21:57.399Z,0.9
2023-01-28T09:23:37.503Z,0.9
2023-01-28T09:25:17.696Z,0.9
2023-01-28T09:26:57.870Z,0.7
2023-01-28T09:28:37.981Z,0.7
2023-01-28T09:30:18.628Z,0.7
2023-01-28T09:31:58.432Z,0.7
2023-01-28T09:33:38.443Z,0.7
2023-01-28T09:35:18.593Z,0.7
2023-01-28T09:36:58.778Z,0.8
2023-01-28T09:38:38.873Z,0.8
2023-01-28T09:40:19.046Z,0.8
2023-01-28T09:41:59.224Z,0.8
2023-01-28T09:43:39.353Z,0.8
2023-01-28T09:45:19.585Z,0.8
2023-01-28T09:46:59.892Z,0.8
2023-01-28T09:48:39.894Z,0.8
2023-01-28T09:50:20.048Z,0.8
2023-01-28T09:52:00.182Z,0.8
2023-01-28T09:53:40.346Z,0.8
2023-01-28T09:55:20.537Z,0.8
2023-01-28T09:57:00.661Z,0.8
2023-01-28T09:58:40.867Z,0.8
2023-01-28T10:00:21.535Z,0.8
2023-01-28T10:02:01.120Z,0.8
2023-01-28T10:03:41.330Z,0.8
2023-01-28T10:05:21.430Z,0.8
2023-01-28T10:07:01.584Z,0.6
2023-01-28T10:08:41.670Z,0.6
2023-01-28T10:10:21.801Z,0.6
2023-01-28T10:12:01.966Z,0.6
2023-01-28T10:13:42.114Z,0.6
2023-01-28T10:15:22.268Z,0.6
2023-01-28T10:17:02.406Z,0.8
2023-01-28T10:18:42.540Z,0.8
2023-01-28T10:20:22.788Z,0.8
2023-01-28T10:22:02.859Z,0.8
2023-01-28T10:23:43.077Z,0.8
2023-01-28T10:25:23.226Z,0.8
2023-01-28T10:27:03.419Z,1.2
2023-01-28T10:28:43.550Z,1.2
2023-01-28T10:30:23.691Z,1.2
2023-01-28T10:32:03.829Z,1.2
2023-01-28T10:33:43.980Z,1.2
2023-01-28T10:35:24.127Z,1.2
2023-01-28T10:37:04.246Z,0.6
2023-01-28T10:38:44.450Z,0.6
2023-01-28T10:40:24.595Z,0.6
2023-01-28T10:42:04.770Z,0.6
2023-01-28T10:43:44.925Z,0.6
2023-01-28T10:45:25.074Z,0.6
2023-01-28T10:47:05.232Z,1.4
2023-01-28T10:48:45.409Z,1.4
2023-01-28T10:50:25.637Z,1.4
2023-01-28T10:52:17.990Z,1.4
2023-01-28T10:53:58.156Z,1.4
2023-01-28T10:55:38.348Z,1.4
2023-01-28T10:57:18.520Z,1.4
2023-01-28T10:58:58.698Z,1.4
2023-01-28T11:00:38.844Z,1.4
2023-01-28T11:02:19.093Z,1.4
2023-01-28T11:03:59.125Z,1.4
2023-01-28T11:05:39.262Z,1.4
2023-01-28T11:07:19.424Z,1.6
2023-01-28T11:09:01.444Z,1.6
2023-01-28T11:10:39.721Z,1.6
2023-01-28T11:12:19.834Z,1.6
2023-01-28T11:14:00.036Z,1.6
2023-01-28T11:15:40.205Z,1.6
2023-01-28T11:17:20.401Z,1.7
2023-01-28T11:19:00.493Z,1.7
2023-01-28T11:20:40.716Z,1.7
2023-01-28T11:22:20.841Z,1.7
2023-01-28T11:24:01.007Z,1.7
2023-01-28T11:25:41.081Z,1.7
2023-01-28T11:27:21.236Z,1.7
2023-01-28T11:29:01.628Z,1.7
2023-01-28T11:30:41.703Z,1.7
2023-01-28T11:32:21.766Z,1.7
2023-01-28T11:34:01.923Z,1.7
2023-01-28T11:35:42.092Z,1.7
2023-01-28T11:37:22.209Z,2.1
2023-01-28T11:39:02.383Z,2.1
2023-01-28T11:40:42.517Z,2.1
2023-01-28T11:42:22.672Z,2.1
2023-01-28T11:44:02.762Z,2.1
2023-01-28T11:45:46.127Z,2.1
2023-01-28T11:47:23.146Z,2
2023-01-28T11:49:03.263Z,2
2023-01-28T11:50:43.400Z,2
2023-01-28T11:52:23.586Z,2
2023-01-28T11:54:03.673Z,2
2023-01-28T11:55:43.928Z,2
2023-01-28T11:57:24.037Z,2
2023-01-28T11:59:04.204Z,2.1
2023-01-28T12:00:44.298Z,2.1
2023-01-28T12:02:24.486Z,2.1
2023-01-28T12:04:04.592Z,2.1
2023-01-28T12:05:44.754Z,2.1
2023-01-28T12:07:24.911Z,2
2023-01-28T12:09:05.053Z,2
2023-01-28T12:10:45.190Z,2
2023-01-28T12:12:25.346Z,2
2023-01-28T12:14:05.574Z,2
2023-01-28T12:15:45.719Z,2
2023-01-28T12:17:26.385Z,2
2023-01-28T12:19:06.021Z,1.4
2023-01-28T12:20:46.228Z,1.4
2023-01-28T12:22:29.439Z,1.4
2023-01-28T12:24:06.543Z,1.4
2023-01-28T12:25:46.696Z,1.4
2023-01-28T12:27:26.833Z,1.4
2023-01-28T12:29:07.012Z,1.5
2023-01-28T12:30:47.276Z,1.5
2023-01-28T12:32:27.345Z,1.5
2023-01-28T12:34:07.546Z,1.5
2023-01-28T12:35:47.704Z,1.5
2023-01-28T12:37:27.865Z,1.5
2023-01-28T12:39:08.013Z,2.2
2023-01-28T12:40:48.194Z,2.2
2023-01-28T12:42:28.319Z,2.2
2023-01-28T12:44:08.474Z,2.2
2023-01-28T12:45:48.694Z,2.2
2023-01-28T12:47:28.859Z,2.2
2023-01-28T12:49:09.000Z,2.4
2023-01-28T12:50:49.192Z,2.4
2023-01-28T12:52:29.352Z,2.4
2023-01-28T12:54:09.504Z,2.4
2023-01-28T12:55:49.695Z,2.4
2023-01-28T12:57:29.991Z,2.4
2023-01-28T12:59:10.090Z,1.7
2023-01-28T13:00:50.314Z,1.7
2023-01-28T13:02:30.484Z,1.7
2023-01-28T13:04:10.626Z,1.7
2023-01-28T13:05:50.743Z,1.7
2023-01-28T13:07:30.899Z,1.7
2023-01-28T13:09:11.046Z,1.4
2023-01-28T13:10:51.169Z,1.4
2023-01-28T13:12:31.337Z,1.4
2023-01-28T13:14:11.547Z,1.4
2023-01-28T13:15:51.676Z,1.4
2023-01-28T13:17:31.832Z,1.4
2023-01-28T13:19:12.002Z,1.2
2023-01-28T13:20:54.762Z,1.2
2023-01-28T13:22:32.282Z,1.2
2023-01-28T13:24:12.438Z,1.2
2023-01-28T13:25:52.579Z,1.2
2023-01-28T13:27:32.712Z,1.2
2023-01-28T13:29:12.896Z,1.7
2023-01-28T13:30:53.043Z,1.7
2023-01-28T13:32:33.248Z,1.7
2023-01-28T13:34:13.287Z,1.7
2023-01-28T13:35:53.475Z,1.7
2023-01-28T13:37:33.602Z,1.7
2023-01-28T13:39:13.765Z,1.7
2023-01-28T13:40:53.949Z,1.7
2023-01-28T13:42:34.079Z,1.7
2023-01-28T13:44:14.216Z,1.7
2023-01-28T13:45:54.453Z,1.7
2023-01-28T13:47:34.576Z,1.7
2023-01-28T13:49:14.693Z,1
2023-01-28T13:50:54.929Z,1
2023-01-28T13:52:35.019Z,1
2023-01-28T13:54:15.144Z,1
2023-01-28T13:55:55.368Z,1
2023-01-28T13:57:35.535Z,1
2023-01-28T13:59:15.727Z,1.1
2023-01-28T14:00:56.101Z,1.1
2023-01-28T14:02:36.383Z,1.1
2023-01-28T14:04:16.582Z,1.1
2023-01-28T14:05:59.817Z,1.1
2023-01-28T14:07:36.996Z,1.1
2023-01-28T14:09:19.293Z,1.05
2023-01-28T14:10:57.220Z,1.05
2023-01-28T14:12:37.371Z,1.05
2023-01-28T14:14:17.564Z,1.05
2023-01-28T14:15:57.766Z,1.05
2023-01-28T14:17:37.937Z,1.05
2023-01-28T14:19:18.079Z,1.1
2023-01-28T14:20:58.264Z,1.1
2023-01-28T14:22:38.386Z,1.1
2023-01-28T14:24:18.684Z,1.1
2023-01-28T14:25:58.707Z,1.1
2023-01-28T14:27:38.823Z,1.1
2023-01-28T14:29:19.055Z,1.7
2023-01-28T14:30:59.296Z,1.7
2023-01-28T14:32:39.357Z,1.7
2023-01-28T14:34:19.503Z,1.7
2023-01-28T14:35:59.665Z,1.7
2023-01-28T14:37:39.840Z,1.7
2023-01-28T14:39:19.971Z,1.85
2023-01-28T14:41:00.270Z,1.85
2023-01-28T14:42:40.304Z,1.85
2023-01-28T14:44:20.405Z,1.85
2023-01-28T14:46:00.597Z,1.85
2023-01-28T14:47:40.750Z,1.85
2023-01-28T14:49:20.887Z,3.7
2023-01-28T14:51:01.015Z,3.7
2023-01-28T14:52:41.196Z,3.7
2023-01-28T14:54:21.370Z,3.7
2023-01-28T14:56:01.570Z,3.7
2023-01-28T14:57:41.732Z,3.7
2023-01-28T14:59:21.865Z,4
2023-01-28T15:01:01.966Z,4
2023-01-28T15:02:42.210Z,4
2023-01-28T15:04:22.322Z,4
2023-01-28T15:06:02.456Z,4
2023-01-28T15:07:42.620Z,4
2023-01-28T15:09:22.753Z,3.3
2023-01-28T15:11:02.928Z,3.3
2023-01-28T15:12:43.096Z,3.3
2023-01-28T15:14:23.267Z,3.3
2023-01-28T15:16:03.413Z,3.3
2023-01-28T15:17:43.588Z,3.3
2023-01-28T15:19:23.691Z,3.3
2023-01-28T15:21:03.800Z,2.1
2023-01-28T15:22:43.956Z,2.1
2023-01-28T15:24:24.132Z,2.1
2023-01-28T15:26:04.276Z,2.1
2023-01-28T15:27:44.461Z,2.1
2023-01-28T15:29:24.583Z,1.8
2023-01-28T15:31:07.935Z,1.8
2023-01-28T15:32:44.843Z,1.8
2023-01-28T15:34:24.973Z,1.8
2023-01-28T15:36:05.089Z,1.8
2023-01-28T15:37:45.245Z,1.8
2023-01-28T15:39:25.357Z,1.8
2023-01-28T15:41:05.482Z,1.9
2023-01-28T15:42:45.600Z,1.9
2023-01-28T15:44:25.745Z,1.9
2023-01-28T15:46:05.918Z,1.9
2023-01-28T15:47:46.185Z,1.9
2023-01-28T15:49:26.285Z,1.9
2023-01-28T15:51:09.516Z,2
2023-01-28T15:52:46.589Z,2
2023-01-28T15:54:26.740Z,2
2023-01-28T15:56:06.906Z,2
2023-01-28T15:57:47.082Z,2
2023-01-28T15:59:27.260Z,2
2023-01-28T16:01:07.500Z,2.3
2023-01-28T16:02:47.530Z,2.3
2023-01-28T16:04:27.663Z,2.3
2023-01-28T16:06:09.607Z,2.3
2023-01-28T16:07:48.002Z,2.3
2023-01-28T16:09:28.187Z,2.3
2023-01-28T16:11:08.320Z,4.7
2023-01-28T16:12:48.427Z,4.7
2023-01-28T16:14:28.630Z,4.7
2023-01-28T16:16:08.839Z,4.7
2023-01-28T16:17:48.913Z,4.7
2023-01-28T16:19:29.060Z,4.7
2023-01-28T16:21:10.578Z,6.9
2023-01-28T16:22:49.381Z,6.9
2023-01-28T16:24:29.629Z,6.9
2023-01-28T16:26:09.695Z,6.9
2023-01-28T16:27:49.851Z,6.9
2023-01-28T16:29:31.074Z,6.9
2023-01-28T16:31:10.343Z,6
2023-01-28T16:32:50.380Z,6
2023-01-28T16:34:30.636Z,6
2023-01-28T16:36:10.696Z,6
2023-01-28T16:37:50.847Z,6
2023-01-28T16:39:34.080Z,6
2023-01-28T16:41:11.219Z,7.4
2023-01-28T16:42:51.351Z,7.4
2023-01-28T16:44:31.496Z,7.4
2023-01-28T16:46:11.663Z,7.4
2023-01-28T16:47:51.865Z,7.4
2023-01-28T16:49:32.021Z,7.4
2023-01-28T16:51:12.186Z,5.7
2023-01-28T16:52:52.313Z,5.7
2023-01-28T16:54:32.473Z,5.7
2023-01-28T16:56:24.962Z,5.7
2023-01-28T16:57:52.804Z,5.7
2023-01-28T16:59:32.976Z,5.7
2023-01-28T17:01:13.143Z,5.1
2023-01-28T17:02:53.235Z,5.1
2023-01-28T17:04:33.404Z,5.1
2023-01-28T17:06:13.555Z,5.1
2023-01-28T17:07:56.726Z,5.1
2023-01-28T17:09:33.818Z,5.1
2023-01-28T17:11:13.945Z,5
2023-01-28T17:12:54.099Z,5
2023-01-28T17:14:34.251Z,5
2023-01-28T17:16:14.462Z,5
2023-01-28T17:17:54.591Z,5
2023-01-28T17:19:34.776Z,5
2023-01-28T17:21:15.017Z,5.8
2023-01-28T17:22:55.311Z,5.8
2023-01-28T17:24:35.455Z,5.8
2023-01-28T17:26:15.565Z,5.8
2023-01-28T17:27:55.733Z,5.8
2023-01-28T17:29:35.884Z,5.8
2023-01-28T17:31:16.120Z,5.4
2023-01-28T17:32:56.164Z,5.4
2023-01-28T17:34:36.334Z,5.4
2023-01-28T17:36:16.439Z,5.4
2023-01-28T17:37:56.607Z,5.4
2023-01-28T17:39:36.725Z,5.4
2023-01-28T17:41:16.896Z,4.8
2023-01-28T17:42:57.034Z,4.8
2023-01-28T17:44:37.213Z,4.8
2023-01-28T17:46:17.533Z,4.8
2023-01-28T17:47:57.586Z,4.8
2023-01-28T17:49:37.717Z,4.8
2023-01-28T17:51:17.867Z,5.4
2023-01-28T17:52:58.077Z,5.4
2023-01-28T17:54:38.259Z,5.4
2023-01-28T17:56:18.480Z,5.4
2023-01-28T17:57:58.615Z,5.4
2023-01-28T17:59:38.775Z,5.4
2023-01-28T18:01:18.989Z,5.4
2023-01-28T18:02:59.127Z,5.4
2023-01-28T18:04:39.336Z,5.4
2023-01-28T18:06:19.468Z,5.4
2023-01-28T18:07:59.547Z,5.4
2023-01-28T18:09:39.698Z,5.4
2023-01-28T18:11:19.846Z,4.6
2023-01-28T18:12:59.986Z,4.6
2023-01-28T18:14:40.161Z,4.6
2023-01-28T18:16:20.354Z,4.6
2023-01-28T18:18:00.479Z,4.6
2023-01-28T18:19:40.646Z,4.6
2023-01-28T18:21:20.811Z,4.5
2023-01-28T18:23:00.956Z,4.5
2023-01-28T18:24:41.092Z,4.5
2023-01-28T18:26:21.224Z,4.5
2023-01-28T18:28:01.432Z,4.5
2023-01-28T18:29:41.583Z,4.5
2023-01-28T18:31:21.740Z,5
2023-01-28T18:33:01.883Z,5
2023-01-28T18:34:42.064Z,5
2023-01-28T18:36:22.240Z,5
2023-01-28T18:38:02.372Z,5
2023-01-28T18:39:44.421Z,5
2023-01-28T18:41:22.657Z,5
2023-01-28T18:43:02.779Z,5.3
2023-01-28T18:44:53.632Z,5.3
2023-01-28T18:46:33.785Z,5.3
2023-01-28T18:48:13.973Z,5.3
2023-01-28T18:49:54.099Z,5.3
2023-01-28T18:51:34.237Z,5.3
2023-01-28T18:53:14.400Z,6.6
2023-01-28T18:54:54.541Z,6.6
2023-01-28T18:56:34.705Z,6.6
2023-01-28T18:58:17.919Z,6.6
2023-01-28T18:59:55.034Z,6.6
2023-01-28T19:01:35.333Z,5.9
2023-01-28T19:03:15.387Z,5.9
2023-01-28T19:04:55.503Z,5.9
2023-01-28T19:06:35.637Z,5.9
2023-01-28T19:08:15.798Z,5.9
2023-01-28T19:09:59.017Z,5.9
2023-01-28T19:11:36.089Z,5.9
2023-01-28T19:13:16.230Z,5
2023-01-28T19:14:56.385Z,5
2023-01-28T19:16:36.538Z,5
2023-01-28T19:18:16.631Z,5
2023-01-28T19:19:56.811Z,5
2023-01-28T19:21:36.939Z,5
2023-01-28T19:23:17.101Z,8.9
2023-01-28T19:24:57.243Z,8.9
2023-01-28T19:26:37.362Z,8.9
2023-01-28T19:28:17.514Z,8.9
2023-01-28T19:29:57.694Z,8.9
2023-01-28T19:31:37.939Z,8.9
2023-01-28T19:33:17.970Z,6
2023-01-28T19:34:58.149Z,6
2023-01-28T19:36:38.323Z,6
2023-01-28T19:38:18.436Z,6
2023-01-28T19:39:58.598Z,6
2023-01-28T19:41:38.800Z,6
2023-01-28T19:43:18.917Z,5.2
2023-01-28T19:44:59.103Z,5.2
2023-01-28T19:46:39.273Z,5.2
2023-01-28T19:48:19.374Z,5.2
2023-01-28T19:49:59.533Z,5.2
2023-01-28T19:51:39.690Z,5.2
2023-01-28T19:53:19.839Z,6.3
2023-01-28T19:55:00.037Z,6.3
2023-01-28T19:56:40.149Z,6.3
2023-01-28T19:58:20.294Z,6.3
2023-01-28T20:00:00.493Z,6.3
2023-01-28T20:01:40.689Z,6.3
2023-01-28T20:03:20.805Z,6.1
2023-01-28T20:05:01.467Z,6.1
2023-01-28T20:06:41.076Z,6.1
2023-01-28T20:08:21.249Z,6.1
2023-01-28T20:10:01.416Z,6.1
2023-01-28T20:11:41.525Z,6.1
2023-01-28T20:13:21.700Z,8
2023-01-28T20:15:01.919Z,8
2023-01-28T20:16:41.994Z,8
2023-01-28T20:18:22.174Z,8
2023-01-28T20:20:02.320Z,8
2023-01-28T20:21:42.475Z,8
2023-01-28T20:23:22.671Z,6.7
2023-01-28T20:25:03.020Z,6.7
2023-01-28T20:26:43.009Z,6.7
2023-01-28T20:28:23.109Z,6.7
2023-01-28T20:30:03.292Z,6.7
2023-01-28T20:31:43.611Z,6.7
2023-01-28T20:33:23.615Z,7.9
2023-01-28T20:35:03.772Z,7.9
2023-01-28T20:36:43.940Z,7.9
2023-01-28T20:38:24.069Z,7.9
2023-01-28T20:40:04.273Z,7.9
2023-01-28T20:41:44.484Z,7.9
2023-01-28T20:43:24.652Z,10.4
2023-01-28T20:45:04.795Z,10.4
2023-01-28T20:46:44.972Z,10.4
2023-01-28T20:48:25.095Z,10.4
2023-01-28T20:50:05.263Z,10.4
2023-01-28T20:51:45.420Z,10.4
2023-01-28T20:53:25.542Z,10
2023-01-28T20:55:05.757Z,10
2023-01-28T20:56:45.915Z,10
2023-01-28T20:58:26.017Z,10
2023-01-28T21:00:06.196Z,10
2023-01-28T21:01:46.483Z,10
2023-01-28T21:03:26.535Z,13.4
2023-01-28T21:05:06.677Z,13.4
2023-01-28T21:06:46.820Z,13.4
2023-01-28T21:08:27.002Z,13.4
2023-01-28T21:10:07.161Z,13.4
2023-01-28T21:11:47.304Z,13.4
2023-01-28T21:13:27.457Z,13.1
2023-01-28T21:15:07.568Z,13.1
2023-01-28T21:16:47.746Z,13.1
2023-01-28T21:18:30.930Z,13.1
2023-01-28T21:20:08.036Z,13.1
2023-01-28T21:21:48.184Z,13.1
2023-01-28T21:23:28.346Z,16.3
2023-01-28T21:25:08.470Z,16.3
2023-01-28T21:26:48.609Z,16.3
2023-01-28T21:28:28.769Z,16.3
2023-01-28T21:30:08.894Z,16.3
2023-01-28T21:31:49.141Z,16.3
2023-01-28T21:33:29.194Z,13.9
2023-01-28T21:35:09.293Z,13.9
2023-01-28T21:36:49.431Z,13.9
2023-01-28T21:38:29.571Z,13.9
2023-01-28T21:40:09.760Z,13.9
2023-01-28T21:41:49.970Z,13.9
2023-01-28T21:43:30.149Z,12.2
2023-01-28T21:45:10.293Z,12.2
2023-01-28T21:46:50.431Z,12.2
2023-01-28T21:48:30.605Z,12.2
2023-01-28T21:50:10.755Z,12.2
2023-01-28T21:51:50.880Z,12.2
2023-01-28T21:53:32.102Z,7.6
2023-01-28T21:55:11.310Z,7.6
2023-01-28T21:56:51.459Z,7.6
2023-01-28T21:58:31.661Z,7.6
2023-01-28T22:00:15.576Z,7.6
2023-01-28T22:01:52.046Z,7.6
2023-01-28T22:03:32.126Z,8.2
2023-01-28T22:05:12.269Z,8.2
2023-01-28T22:06:52.396Z,8.2
2023-01-28T22:08:32.540Z,8.2
2023-01-28T22:10:12.666Z,8.2
2023-01-28T22:11:52.814Z,8.2
2023-01-28T22:13:32.949Z,9.9
2023-01-28T22:15:13.117Z,9.9
2023-01-28T22:16:53.332Z,9.9
2023-01-28T22:18:33.539Z,9.9
2023-01-28T22:20:14.313Z,9.9
2023-01-28T22:21:54.036Z,9.9
2023-01-28T22:23:34.266Z,9.9
2023-01-28T22:25:14.444Z,13
2023-01-28T22:26:54.618Z,13
2023-01-28T22:28:34.833Z,13
2023-01-28T22:30:15.410Z,13
2023-01-28T22:31:55.303Z,13
2023-01-28T22:33:35.352Z,13
2023-01-28T22:35:15.505Z,12.8
2023-01-28T22:36:55.660Z,12.8
2023-01-28T22:38:35.824Z,12.8
2023-01-28T22:40:16.343Z,12.8
2023-01-28T22:41:56.214Z,12.8
2023-01-28T22:43:36.369Z,12.8
2023-01-28T22:45:16.537Z,11.7
2023-01-28T22:46:56.781Z,11.7
2023-01-28T22:48:36.920Z,11.7
2023-01-28T22:50:17.482Z,11.7
2023-01-28T22:51:57.307Z,11.7
2023-01-28T22:53:37.407Z,11.7
2023-01-28T22:55:17.650Z,12.3
2023-01-28T22:56:57.783Z,12.3
2023-01-28T22:58:37.913Z,12.3
2023-01-28T23:00:18.476Z,12.3
2023-01-28T23:01:58.389Z,0
2023-01-28T23:03:38.403Z,0
2023-01-28T23:05:18.555Z,0
2023-01-28T23:06:58.711Z,0
2023-01-28T23:08:38.844Z,0
2023-01-28T23:10:19.231Z,0